createdAt,value
2019-02-20T00:02:06.575Z,95706.46
2019-02-20T00:04:39.231Z,95713.08
2019-02-20T00:07:11.895Z,95716.23
2019-02-20T00:09:44.597Z,95719.08
2019-02-20T00:12:17.308Z,95715.14
2019-02-20T00:14:49.877Z,95721.88
2019-02-20T00:17:22.581Z,95718.02
2019-02-20T00:19:55.167Z,95715.77
2019-02-20T00:22:27.761Z,95710.30
2019-02-20T00:25:00.438Z,95719.06
2019-02-20T00:27:33.120Z,95705.11
2019-02-20T00:30:06.520Z,95709.70
2019-02-20T00:32:39.197Z,95711.28
2019-02-20T00:35:12.233Z,95710.13
2019-02-20T00:37:44.933Z,95709.78
2019-02-20T00:40:17.815Z,95704.45
2019-02-20T00:42:50.479Z,95709.55
2019-02-20T00:45:47.713Z,95712.97
2019-02-20T00:48:30.994Z,95703.26
2019-02-20T00:51:11.641Z,95706.48
2019-02-20T00:53:56.689Z,95709.91
2019-02-20T00:56:29.312Z,95706.52
2019-02-20T00:59:02.043Z,95713.47
2019-02-20T01:01:34.642Z,95713.99
2019-02-20T01:04:07.323Z,95718.14
2019-02-20T01:06:40.121Z,95712.21
2019-02-20T01:09:12.740Z,95720.66
2019-02-20T01:11:45.370Z,95722.06
2019-02-20T01:14:18.062Z,95720.05
2019-02-20T01:16:50.610Z,95714.76
2019-02-20T01:19:23.299Z,95719.89
2019-02-20T01:21:55.969Z,95720.53
2019-02-20T01:24:28.856Z,95714.78
2019-02-20T01:27:01.416Z,95716.83
2019-02-20T01:29:34.037Z,95716.41
2019-02-20T01:32:06.620Z,95721.02
2019-02-20T01:34:39.309Z,95716.06
2019-02-20T01:37:11.962Z,95724.91
2019-02-20T01:39:44.775Z,95718.40
2019-02-20T01:42:17.389Z,95720.73
2019-02-20T01:44:50.010Z,95721.11
2019-02-20T01:47:22.640Z,95711.69
2019-02-20T01:49:55.251Z,95712.22
2019-02-20T01:52:27.911Z,95716.89
2019-02-20T01:55:00.618Z,95712.38
2019-02-20T01:57:33.267Z,95712.91
2019-02-20T02:00:08.210Z,95708.63
2019-02-20T02:02:40.930Z,95718.33
2019-02-20T02:05:15.769Z,95711.65
2019-02-20T02:07:48.094Z,95712.52
2019-02-20T02:10:20.710Z,95705.95
2019-02-20T02:12:53.392Z,95709.91
2019-02-20T02:15:26.000Z,95705.67
2019-02-20T02:17:58.628Z,95704.53
2019-02-20T02:20:31.310Z,95700.02
2019-02-20T02:23:03.222Z,95707.20
2019-02-20T02:25:35.812Z,95703.39
2019-02-20T02:28:08.461Z,95712.34
2019-02-20T02:30:41.292Z,95700.53
2019-02-20T02:33:13.986Z,95701.92
2019-02-20T02:35:46.619Z,95705.24
2019-02-20T02:38:19.282Z,95705.75
2019-02-20T02:40:51.909Z,95698.95
2019-02-20T02:43:24.483Z,95701.20
2019-02-20T02:45:57.433Z,95696.55
2019-02-20T02:48:30.129Z,95691.09
2019-02-20T02:51:02.806Z,95702.88
2019-02-20T02:53:35.492Z,95696.36
2019-02-20T02:56:08.240Z,95690.75
2019-02-20T02:58:40.952Z,95691.64
2019-02-20T03:01:13.618Z,95689.83
2019-02-20T03:03:46.200Z,95690.85
2019-02-20T03:06:18.853Z,95693.50
2019-02-20T03:08:51.528Z,95691.45
2019-02-20T03:11:24.260Z,95695.37
2019-02-20T03:13:56.847Z,95697.05
2019-02-20T03:16:29.542Z,95701.23
2019-02-20T03:19:02.248Z,95703.23
2019-02-20T03:21:34.900Z,95707.06
2019-02-20T03:24:07.495Z,95704.00
2019-02-20T03:26:40.170Z,95708.30
2019-02-20T03:29:12.766Z,95707.16
2019-02-20T03:31:45.369Z,95709.39
2019-02-20T03:34:18.018Z,95716.11
2019-02-20T03:36:50.653Z,95715.03
2019-02-20T03:39:23.396Z,95714.19
2019-02-20T03:41:56.113Z,95715.72
2019-02-20T03:44:28.686Z,95717.83
2019-02-20T03:47:01.334Z,95716.43
2019-02-20T03:49:33.965Z,95717.25
2019-02-20T03:52:06.633Z,95719.33
2019-02-20T03:54:39.302Z,95718.17
2019-02-20T03:57:11.958Z,95722.45
2019-02-20T03:59:44.641Z,95722.33
2019-02-20T04:02:17.278Z,95727.25
2019-02-20T04:04:49.843Z,95733.30
2019-02-20T04:07:22.625Z,95730.98
2019-02-20T04:09:55.335Z,95735.98
2019-02-20T04:12:27.958Z,95744.16
2019-02-20T04:15:00.626Z,95737.52
2019-02-20T04:17:33.347Z,95735.28
2019-02-20T04:20:06.949Z,95739.62
2019-02-20T04:22:39.648Z,95737.27
2019-02-20T04:25:12.224Z,95733.03
2019-02-20T04:27:45.005Z,95735.30
2019-02-20T04:30:17.706Z,95740.15
2019-02-20T04:32:50.308Z,95738.22
2019-02-20T04:35:22.870Z,95742.84
2019-02-20T04:37:55.554Z,95737.05
2019-02-20T04:40:28.791Z,95742.33
2019-02-20T04:43:01.485Z,95742.18
2019-02-20T04:45:34.174Z,95745.45
2019-02-20T04:48:06.936Z,95739.20
2019-02-20T04:50:39.596Z,95740.61
2019-02-20T04:53:12.314Z,95738.05
2019-02-20T04:55:44.283Z,95746.11
2019-02-20T04:58:21.797Z,95741.36
2019-02-20T05:00:54.370Z,95744.04
2019-02-20T05:03:27.168Z,95748.70
2019-02-20T05:05:59.840Z,95751.27
2019-02-20T05:08:32.450Z,95749.05
2019-02-20T05:11:05.073Z,95746.48
2019-02-20T05:13:37.704Z,95747.31
2019-02-20T05:16:10.383Z,95747.55
2019-02-20T05:18:43.090Z,95741.02
2019-02-20T05:21:15.668Z,95748.42
2019-02-20T05:23:48.316Z,95740.48
2019-02-20T05:26:21.023Z,95749.38
2019-02-20T05:28:53.658Z,95750.08
2019-02-20T05:31:26.271Z,95749.66
2019-02-20T05:33:58.966Z,95740.91
2019-02-20T05:36:31.562Z,95747.55
2019-02-20T05:39:05.000Z,95749.42
2019-02-20T05:41:37.651Z,95747.69
2019-02-20T05:44:10.394Z,95753.48
2019-02-20T05:46:43.041Z,95755.69
2019-02-20T05:49:15.812Z,95758.02
2019-02-20T05:51:48.604Z,95757.68
2019-02-20T05:54:21.199Z,95759.91
2019-02-20T05:56:53.789Z,95754.89
2019-02-20T05:59:26.447Z,95768.39
2019-02-20T06:01:59.101Z,95763.98
2019-02-20T06:04:31.772Z,95773.64
2019-02-20T06:07:04.472Z,95775.73
2019-02-20T06:09:37.113Z,95775.28
2019-02-20T06:12:09.740Z,95774.67
2019-02-20T06:14:42.527Z,95774.69
2019-02-20T06:17:15.212Z,95768.75
2019-02-20T06:19:47.866Z,95780.49
2019-02-20T06:22:20.508Z,95772.93
2019-02-20T06:24:54.510Z,95774.56
2019-02-20T06:27:27.158Z,95781.67
2019-02-20T06:29:59.754Z,95774.46
2019-02-20T06:32:32.560Z,95773.40
2019-02-20T06:35:05.466Z,95777.95
2019-02-20T06:37:38.127Z,95780.63
2019-02-20T06:40:10.844Z,95780.64
2019-02-20T06:42:43.469Z,95785.76
2019-02-20T06:45:16.220Z,95793.09
2019-02-20T06:47:48.814Z,95799.95
2019-02-20T06:50:21.505Z,95792.98
2019-02-20T06:52:54.069Z,95808.47
2019-02-20T06:55:26.716Z,95810.34
2019-02-20T06:57:59.363Z,95810.90
2019-02-20T07:00:32.201Z,95816.75
2019-02-20T07:03:04.754Z,95814.98
2019-02-20T07:05:43.105Z,95827.92
2019-02-20T07:09:24.964Z,95838.52
2019-02-20T07:12:40.738Z,95832.23
2019-02-20T07:15:50.475Z,95842.84
2019-02-20T07:19:53.085Z,95840.25
2019-02-20T07:23:22.035Z,95854.56
2019-02-20T07:27:14.182Z,95853.53
2019-02-20T07:29:45.266Z,95850.86
2019-02-20T07:32:19.087Z,95851.56
2019-02-20T07:34:51.772Z,95855.75
2019-02-20T07:37:24.377Z,95854.81
2019-02-20T07:39:57.479Z,95860.98
2019-02-20T07:42:30.274Z,95862.50
2019-02-20T07:45:03.041Z,95857.45
2019-02-20T07:47:35.699Z,95862.98
2019-02-20T07:50:10.324Z,95860.57
2019-02-20T07:52:42.882Z,95860.63
2019-02-20T07:55:15.714Z,95855.66
2019-02-20T07:57:48.491Z,95865.03
2019-02-20T08:00:21.332Z,95863.32
2019-02-20T08:02:53.982Z,95864.84
2019-02-20T08:05:26.650Z,95873.72
2019-02-20T08:07:59.295Z,95870.76
2019-02-20T08:10:31.941Z,95870.66
2019-02-20T08:13:04.707Z,95868.81
2019-02-20T08:15:37.672Z,95863.91
2019-02-20T08:18:10.312Z,95863.84
2019-02-20T08:20:42.958Z,95861.25
2019-02-20T08:23:15.650Z,95871.05
2019-02-20T08:25:48.284Z,95872.09
2019-02-20T08:28:21.032Z,95873.07
2019-02-20T08:30:53.714Z,95862.78
2019-02-20T08:33:28.553Z,95860.03
2019-02-20T08:36:03.993Z,95862.16
2019-02-20T08:38:36.712Z,95844.60
2019-02-20T08:41:09.307Z,95848.86
2019-02-20T08:43:42.010Z,95851.70
2019-02-20T08:46:14.695Z,95846.61
2019-02-20T08:48:47.478Z,95848.95
2019-02-20T08:51:20.233Z,95841.50
2019-02-20T08:53:52.934Z,95838.72
2019-02-20T08:56:25.565Z,95837.13
2019-02-20T08:58:57.751Z,95844.93
2019-02-20T09:01:30.338Z,95836.62
2019-02-20T09:04:03.161Z,95845.09
2019-02-20T09:06:35.972Z,95845.70
2019-02-20T09:09:08.610Z,95852.73
2019-02-20T09:11:41.269Z,95850.99
2019-02-20T09:14:14.010Z,95851.70
2019-02-20T09:16:46.633Z,95854.93
2019-02-20T09:19:19.332Z,95845.50
2019-02-20T09:21:51.983Z,95851.39
2019-02-20T09:24:24.622Z,95853.49
2019-02-20T09:26:57.406Z,95854.05
2019-02-20T09:29:30.365Z,95856.50
2019-02-20T09:32:03.553Z,95859.48
2019-02-20T09:34:36.144Z,95852.39
2019-02-20T09:37:08.880Z,95859.50
2019-02-20T09:39:43.194Z,95860.52
2019-02-20T09:42:21.304Z,95861.59
2019-02-20T09:47:38.810Z,95856.36
2019-02-20T09:50:11.600Z,95861.47
2019-02-20T09:52:51.973Z,95863.22
2019-02-20T09:55:18.656Z,95857.30
2019-02-20T09:57:51.291Z,95855.81
2019-02-20T10:00:23.976Z,95862.63
2019-02-20T10:02:56.637Z,95857.44
2019-02-20T10:05:29.327Z,95862.94
2019-02-20T10:08:02.127Z,95856.09
2019-02-20T10:10:34.877Z,95850.87
2019-02-20T10:13:09.544Z,95844.72
2019-02-20T10:15:42.065Z,95850.89
2019-02-20T10:18:14.941Z,95857.51
2019-02-20T10:20:47.727Z,95859.52
2019-02-20T10:23:20.402Z,95853.64
2019-02-20T10:26:00.552Z,95862.16
2019-02-20T10:28:27.501Z,95850.00
2019-02-20T10:31:00.246Z,95858.12
2019-02-20T10:33:33.002Z,95858.97
2019-02-20T10:36:05.675Z,95863.01
2019-02-20T10:38:38.759Z,95854.02
2019-02-20T10:41:10.587Z,95857.67
2019-02-20T10:43:43.474Z,95858.44
2019-02-20T10:46:16.193Z,95864.55
2019-02-20T10:48:48.219Z,95867.17
2019-02-20T10:51:20.850Z,95866.16
2019-02-20T10:53:53.588Z,95870.87
2019-02-20T10:56:26.324Z,95866.82
2019-02-20T10:58:59.089Z,95863.69
2019-02-20T11:01:31.779Z,95862.00
2019-02-20T11:04:04.543Z,95863.98
2019-02-20T11:06:37.300Z,95867.56
2019-02-20T11:09:10.177Z,95871.17
2019-02-20T11:11:42.927Z,95863.48
2019-02-20T11:14:15.641Z,95875.52
2019-02-20T11:16:47.839Z,95871.59
2019-02-20T11:19:20.603Z,95867.72
2019-02-20T11:21:53.427Z,95875.23
2019-02-20T11:24:26.158Z,95869.45
2019-02-20T11:26:58.874Z,95860.12
2019-02-20T11:29:31.559Z,95869.53
2019-02-20T11:32:04.306Z,95872.21
2019-02-20T11:34:36.966Z,95874.09
2019-02-20T11:37:09.638Z,95872.89
2019-02-20T11:39:42.344Z,95871.91
2019-02-20T11:42:15.192Z,95865.04
2019-02-20T11:44:47.912Z,95861.52
2019-02-20T11:47:20.570Z,95859.56
2019-02-20T11:49:53.295Z,95860.56
2019-02-20T11:52:25.963Z,95865.25
2019-02-20T11:54:58.839Z,95866.17
2019-02-20T11:57:31.497Z,95858.86
2019-02-20T12:00:04.910Z,95853.53
2019-02-20T12:02:42.164Z,95856.22
2019-02-20T12:05:12.188Z,95854.69
2019-02-20T12:07:44.913Z,95849.84
2019-02-20T12:10:18.653Z,95851.05
2019-02-20T12:12:51.548Z,95853.16
2019-02-20T12:15:26.737Z,95848.71
2019-02-20T12:17:59.474Z,95845.81
2019-02-20T12:20:32.441Z,95847.25
2019-02-20T12:23:05.133Z,95847.30
2019-02-20T12:25:37.789Z,95850.53
2019-02-20T12:28:10.579Z,95842.09
2019-02-20T12:30:43.376Z,95846.80
2019-02-20T12:33:16.552Z,95847.36
2019-02-20T12:35:48.505Z,95842.47
2019-02-20T12:38:21.408Z,95840.39
2019-02-20T12:40:54.135Z,95845.70
2019-02-20T12:43:26.932Z,95844.58
2019-02-20T12:45:59.897Z,95841.91
2019-02-20T12:48:32.710Z,95829.38
2019-02-20T12:51:05.456Z,95833.78
2019-02-20T12:53:38.216Z,95840.16
2019-02-20T12:56:11.126Z,95836.95
2019-02-20T12:58:43.871Z,95830.08
2019-02-20T13:01:16.789Z,95833.34
2019-02-20T13:03:50.798Z,95833.05
2019-02-20T13:06:23.650Z,95834.19
2019-02-20T13:08:56.346Z,95836.72
2019-02-20T13:11:29.046Z,95837.75
2019-02-20T13:14:01.833Z,95841.23
2019-02-20T13:16:34.645Z,95839.36
2019-02-20T13:19:07.558Z,95843.81
2019-02-20T13:21:40.358Z,95837.27
2019-02-20T13:24:13.121Z,95842.38
2019-02-20T13:26:52.878Z,95839.14
2019-02-20T13:29:20.293Z,95838.67
2019-02-20T13:31:53.057Z,95836.88
2019-02-20T13:34:25.730Z,95835.09
2019-02-20T13:36:58.490Z,95834.55
2019-02-20T13:39:31.135Z,95837.75
2019-02-20T13:42:03.795Z,95836.81
2019-02-20T13:44:36.541Z,95833.34
2019-02-20T13:47:09.426Z,95832.70
2019-02-20T13:49:42.060Z,95829.52
2019-02-20T13:52:14.838Z,95825.37
2019-02-20T13:54:47.476Z,95825.95
2019-02-20T13:57:20.762Z,95829.38
2019-02-20T13:59:53.453Z,95821.61
2019-02-20T14:02:26.171Z,95832.48
2019-02-20T14:04:58.881Z,95823.31
2019-02-20T14:07:31.633Z,95828.52
2019-02-20T14:10:05.043Z,95826.58
2019-02-20T14:12:37.731Z,95833.27
2019-02-20T14:15:11.689Z,95830.64
2019-02-20T14:17:44.498Z,95834.42
2019-02-20T14:20:17.332Z,95828.58
2019-02-20T14:22:50.057Z,95831.22
2019-02-20T14:25:22.798Z,95833.92
2019-02-20T14:27:55.592Z,95835.30
2019-02-20T14:30:28.353Z,95833.16
2019-02-20T14:33:01.287Z,95828.51
2019-02-20T14:35:34.057Z,95837.45
2019-02-20T14:38:06.914Z,95838.95
2019-02-20T14:40:42.075Z,95835.06
2019-02-20T14:43:15.137Z,95837.32
2019-02-20T14:45:48.259Z,95837.70
2019-02-20T14:48:20.856Z,95848.39
2019-02-20T14:50:53.607Z,95850.84
2019-02-20T14:53:27.124Z,95855.16
2019-02-20T14:55:59.864Z,95852.03
2019-02-20T14:58:32.506Z,95852.23
2019-02-20T15:01:06.124Z,95851.71
2019-02-20T15:03:38.822Z,95849.00
2019-02-20T15:06:11.486Z,95849.29
2019-02-20T15:08:44.247Z,95853.27
2019-02-20T15:11:16.887Z,95850.16
2019-02-20T15:13:49.527Z,95854.37
2019-02-20T15:16:22.160Z,95854.50
2019-02-20T15:18:54.982Z,95859.10
2019-02-20T15:21:28.040Z,95851.70
2019-02-20T15:24:02.488Z,95855.89
2019-02-20T15:26:35.221Z,95853.19
2019-02-20T15:29:07.960Z,95854.02
2019-02-20T15:31:40.656Z,95855.91
2019-02-20T15:34:13.424Z,95856.79
2019-02-20T15:36:46.010Z,95850.86
2019-02-20T15:39:18.586Z,95851.91
2019-02-20T15:41:51.360Z,95857.86
2019-02-20T15:44:23.937Z,95863.84
2019-02-20T15:46:56.718Z,95860.00
2019-02-20T15:49:29.292Z,95865.77
2019-02-20T15:52:02.011Z,95864.30
2019-02-20T15:54:34.721Z,95863.42
2019-02-20T15:57:07.459Z,95866.09
2019-02-20T15:59:40.242Z,95866.72
2019-02-20T16:02:12.905Z,95869.77
2019-02-20T16:04:45.617Z,95864.41
2019-02-20T16:07:18.377Z,95865.03
2019-02-20T16:09:51.472Z,95865.89
2019-02-20T16:12:24.130Z,95868.70
2019-02-20T16:14:58.576Z,95871.14
2019-02-20T16:17:31.249Z,95871.16
2019-02-20T16:20:03.898Z,95871.28
2019-02-20T16:22:36.912Z,95880.58
2019-02-20T16:25:12.159Z,95871.71
2019-02-20T16:27:47.472Z,95878.09
2019-02-20T16:30:19.363Z,95880.98
2019-02-20T16:32:52.011Z,95879.91
2019-02-20T16:35:24.720Z,95877.28
2019-02-20T16:37:57.439Z,95885.95
2019-02-20T16:40:30.067Z,95882.99
2019-02-20T16:43:03.847Z,95884.94
2019-02-20T16:45:36.815Z,95883.27
2019-02-20T16:48:09.506Z,95888.36
2019-02-20T16:50:42.161Z,95886.17
2019-02-20T16:53:14.798Z,95885.84
2019-02-20T16:55:47.425Z,95891.92
2019-02-20T16:58:20.560Z,95887.16
2019-02-20T17:00:54.353Z,95895.17
2019-02-20T17:03:27.148Z,95891.91
2019-02-20T17:05:59.839Z,95895.83
2019-02-20T17:08:32.458Z,95888.53
2019-02-20T17:11:05.030Z,95892.72
2019-02-20T17:13:39.519Z,95898.66
2019-02-20T17:16:12.196Z,95897.67
2019-02-20T17:18:44.865Z,95898.91
2019-02-20T17:21:18.336Z,95906.77
2019-02-20T17:23:51.124Z,95903.14
2019-02-20T17:26:23.782Z,95904.03
2019-02-20T17:28:56.772Z,95911.34
2019-02-20T17:31:29.487Z,95911.03
2019-02-20T17:34:02.449Z,95918.55
2019-02-20T17:36:35.078Z,95919.28
2019-02-20T17:39:08.616Z,95925.38
2019-02-20T17:41:41.252Z,95930.30
2019-02-20T17:44:13.910Z,95936.55
2019-02-20T17:46:46.568Z,95939.59
2019-02-20T17:49:19.298Z,95945.23
2019-02-20T17:51:51.877Z,95946.34
2019-02-20T17:54:24.593Z,95949.55
2019-02-20T17:56:57.713Z,95954.18
2019-02-20T17:59:30.366Z,95955.04
2019-02-20T18:02:03.157Z,95969.27
2019-02-20T18:04:36.066Z,95965.56
2019-02-20T18:07:08.868Z,95961.02
2019-02-20T18:09:41.417Z,95970.20
2019-02-20T18:12:14.100Z,95973.22
2019-02-20T18:14:46.709Z,95981.72
2019-02-20T18:17:19.375Z,95977.37
2019-02-20T18:19:51.978Z,95982.48
2019-02-20T18:22:24.728Z,95980.48
2019-02-20T18:24:57.375Z,95984.19
2019-02-20T18:27:30.140Z,95982.49
2019-02-20T18:30:02.830Z,95997.56
2019-02-20T18:32:37.216Z,95991.00
2019-02-20T18:35:11.160Z,95988.59
2019-02-20T18:37:43.746Z,95999.52
2019-02-20T18:40:17.168Z,95992.66
2019-02-20T18:42:49.756Z,95995.31
2019-02-20T18:45:22.807Z,96000.41
2019-02-20T18:47:55.913Z,95993.11
2019-02-20T18:50:28.549Z,95992.54
2019-02-20T18:53:01.189Z,95993.51
2019-02-20T18:55:33.821Z,96000.36
2019-02-20T18:58:06.681Z,96001.39
2019-02-20T19:00:39.339Z,96008.67
2019-02-20T19:03:11.912Z,95997.22
2019-02-20T19:05:44.675Z,95997.41
2019-02-20T19:08:43.118Z,96001.42
2019-02-20T19:12:01.603Z,96008.53
2019-02-20T19:15:13.316Z,96008.99
2019-02-20T19:18:41.536Z,96001.48
2019-02-20T19:22:21.799Z,96001.70
2019-02-20T19:26:03.207Z,96010.42
2019-02-20T19:29:07.343Z,96016.13
2019-02-20T19:32:51.648Z,96008.35
2019-02-20T19:36:05.155Z,96018.61
2019-02-20T19:39:04.775Z,96016.91
2019-02-20T19:42:19.316Z,96016.67
2019-02-20T19:45:34.680Z,96025.06
2019-02-20T19:49:19.583Z,96023.96
2019-02-20T19:52:50.031Z,96020.91
2019-02-20T19:56:07.688Z,96028.70
2019-02-20T19:59:29.155Z,96038.89
2019-02-20T20:02:45.078Z,96042.77
2019-02-20T20:06:15.432Z,96045.05
2019-02-20T20:10:09.814Z,96043.06
2019-02-20T20:13:35.606Z,96049.33
2019-02-20T20:16:30.680Z,96053.26
2019-02-20T20:19:45.989Z,96051.23
2019-02-20T20:23:15.879Z,96050.27
2019-02-20T20:26:33.637Z,96049.67
2019-02-20T20:30:05.064Z,96054.00
2019-02-20T20:33:33.250Z,96056.64
2019-02-20T20:36:53.074Z,96060.87
2019-02-20T20:40:43.781Z,96065.46
2019-02-20T20:43:58.354Z,96069.42
2019-02-20T20:47:08.204Z,96067.33
2019-02-20T20:50:45.617Z,96067.11
2019-02-20T20:54:26.417Z,96066.16
2019-02-20T20:57:28.310Z,96066.17
2019-02-20T21:00:45.599Z,96062.53
2019-02-20T21:03:19.174Z,96071.81
2019-02-20T21:06:39.854Z,96074.28
2019-02-20T21:10:07.815Z,96074.64
2019-02-20T21:13:34.794Z,96081.73
2019-02-20T21:17:21.201Z,96078.89
2019-02-20T21:20:54.110Z,96086.20
2019-02-20T21:24:23.160Z,96080.75
2019-02-20T21:27:51.360Z,96077.84
2019-02-20T21:31:22.001Z,96084.72
2019-02-20T21:34:59.628Z,96084.85
2019-02-20T21:38:36.770Z,96083.56
2019-02-20T21:41:57.282Z,96077.16
2019-02-20T21:45:25.327Z,96077.95
2019-02-20T21:48:58.498Z,96077.19
2019-02-20T21:52:11.334Z,96080.55
2019-02-20T21:55:31.877Z,96086.02
2019-02-20T21:58:55.863Z,96083.16
2019-02-20T22:02:12.673Z,96083.91
2019-02-20T22:05:48.322Z,96087.08
2019-02-20T22:08:50.792Z,96085.44
2019-02-20T22:12:03.195Z,96083.27
2019-02-20T22:15:26.931Z,96084.22
2019-02-20T22:18:42.597Z,96085.53
2019-02-20T22:22:10.282Z,96086.94
2019-02-20T22:25:30.185Z,96092.53
2019-02-20T22:28:44.258Z,96089.48
2019-02-20T22:31:50.002Z,96091.44
2019-02-20T22:35:09.958Z,96091.34
2019-02-20T22:38:08.482Z,96090.57
2019-02-20T22:41:57.604Z,96085.77
2019-02-20T22:45:44.180Z,96089.97
2019-02-20T22:49:12.331Z,96091.73
2019-02-20T22:52:26.579Z,96090.07
2019-02-20T22:55:50.571Z,96097.34
2019-02-20T22:58:49.982Z,96106.26
2019-02-20T23:02:19.970Z,96106.33
2019-02-20T23:05:41.829Z,96106.20
2019-02-20T23:08:52.568Z,96114.37
2019-02-20T23:12:13.047Z,96111.92
2019-02-20T23:14:58.867Z,96112.97
2019-02-20T23:17:31.484Z,96116.23
2019-02-20T23:20:04.250Z,96117.39
2019-02-20T23:22:37.016Z,96119.64
2019-02-20T23:25:09.670Z,96127.86
2019-02-20T23:27:42.348Z,96120.27
2019-02-20T23:30:15.013Z,96119.31
2019-02-20T23:32:47.533Z,96120.11
2019-02-20T23:35:20.233Z,96128.98
2019-02-20T23:37:52.880Z,96120.81
2019-02-20T23:40:27.631Z,96127.74
2019-02-20T23:42:59.884Z,96118.66
2019-02-20T23:45:32.610Z,96124.38
2019-02-20T23:48:05.289Z,96124.83
2019-02-20T23:50:38.994Z,96122.55
2019-02-20T23:53:11.627Z,96127.22
2019-02-20T23:55:44.439Z,96131.67
2019-02-20T23:58:17.111Z,96121.93
